Aireys Inlet, Australia
Current Conditions -  °F | °C
As of 1:00 AM on Thursday 27 Nov 2014 (Local Time) from YMAV Reporting Station
Overcast Overcast  
Wind Chill: 55°   Ceiling: 3800
Heat Index: 55°   Visibility: 6mi
Dew Point: 43°   Wind: 13mph
Humidity: 63%   Direction: 180°S
Pressure: 30.24"   Gusts: NA
Location:  38.46°S, 144.11°E
Report Text: YMAV 261400Z AUTO 18011KT 9999 // OVC038 13/06 Q1024
Loading
Personal Weather Stations






























Interactive Weather Map New forecast layout! Learn more

10-Day Weather Forecast

Advertisements
Track Severe Weather on mobile